createdAt,value
2019-04-16T00:02:32.509Z,53.34
2019-04-16T00:05:08.244Z,53.33
2019-04-16T00:07:46.013Z,52.60
2019-04-16T00:10:35.230Z,53.53
2019-04-16T00:13:33.440Z,53.83
2019-04-16T00:16:05.435Z,54.03
2019-04-16T00:18:35.572Z,53.62
2019-04-16T00:21:24.660Z,54.27
2019-04-16T00:24:18.133Z,54.19
2019-04-16T00:26:46.407Z,54.44
2019-04-16T00:29:16.680Z,54.48
2019-04-16T00:32:09.786Z,54.42
2019-04-16T00:34:44.562Z,54.95
2019-04-16T00:37:11.952Z,55.88
2019-04-16T00:39:42.143Z,56.23
2019-04-16T00:42:12.244Z,55.46
2019-04-16T00:44:42.470Z,56.24
2019-04-16T00:47:12.715Z,55.71
2019-04-16T00:49:42.838Z,56.20
2019-04-16T00:52:12.946Z,55.81
2019-04-16T00:54:43.244Z,55.99
2019-04-16T00:57:17.679Z,56.58
2019-04-16T00:59:48.686Z,56.23
2019-04-16T01:02:18.811Z,56.76
2019-04-16T01:04:51.674Z,57.16
2019-04-16T01:07:21.792Z,56.82
2019-04-16T01:09:51.902Z,55.98
2019-04-16T01:12:22.030Z,56.49
2019-04-16T01:14:52.204Z,56.94
2019-04-16T01:17:22.365Z,56.77
2019-04-16T01:19:52.505Z,56.74
2019-04-16T01:22:22.615Z,56.63
2019-04-16T01:24:52.796Z,56.43
2019-04-16T01:27:31.264Z,57.12
2019-04-16T01:30:05.099Z,57.72
2019-04-16T01:32:51.076Z,57.36
2019-04-16T01:35:52.732Z,58.04
2019-04-16T01:38:41.957Z,57.56
2019-04-16T01:41:14.089Z,58.22
2019-04-16T01:43:44.169Z,58.44
2019-04-16T01:46:14.314Z,57.85
2019-04-16T01:48:44.433Z,58.71
2019-04-16T01:51:16.303Z,58.68
2019-04-16T01:53:49.398Z,59.47
2019-04-16T01:56:19.763Z,59.01
2019-04-16T01:58:49.968Z,59.33
2019-04-16T02:01:20.109Z,59.28
2019-04-16T02:03:50.230Z,59.49
2019-04-16T02:06:20.345Z,58.95
2019-04-16T02:08:50.452Z,59.08
2019-04-16T02:11:20.618Z,59.08
2019-04-16T02:13:50.731Z,58.75
2019-04-16T02:16:26.349Z,59.28
2019-04-16T02:19:01.286Z,59.72
2019-04-16T02:21:31.597Z,59.65
2019-04-16T02:24:01.700Z,59.48
2019-04-16T02:26:32.700Z,59.92
2019-04-16T02:29:02.827Z,60.09
2019-04-16T02:31:42.484Z,60.08
2019-04-16T02:34:15.380Z,59.72
2019-04-16T02:36:45.539Z,60.24
2019-04-16T02:39:15.624Z,60.59
2019-04-16T02:41:45.749Z,60.42
2019-04-16T02:44:17.057Z,60.30
2019-04-16T02:46:48.626Z,60.24
2019-04-16T02:49:24.416Z,60.88
2019-04-16T02:52:16.597Z,60.88
2019-04-16T02:54:54.963Z,60.95
2019-04-16T02:57:46.827Z,61.18
2019-04-16T03:00:35.979Z,61.04
2019-04-16T03:03:12.882Z,61.51
2019-04-16T03:05:48.041Z,61.32
2019-04-16T03:08:20.341Z,61.90
2019-04-16T03:10:50.446Z,60.96
2019-04-16T03:13:23.328Z,60.86
2019-04-16T03:16:10.098Z,62.02
2019-04-16T03:18:49.461Z,61.33
2019-04-16T03:21:19.910Z,62.56
2019-04-16T03:23:52.854Z,62.70
2019-04-16T03:26:22.942Z,62.59
2019-04-16T03:28:55.655Z,61.79
2019-04-16T03:31:25.091Z,61.80
2019-04-16T03:34:02.510Z,61.99
2019-04-16T03:36:32.323Z,62.74
2019-04-16T03:39:04.092Z,63.57
2019-04-16T03:41:35.399Z,62.58
2019-04-16T03:44:06.172Z,62.61
2019-04-16T03:46:36.330Z,62.78
2019-04-16T03:49:07.392Z,63.22
2019-04-16T03:51:40.514Z,63.66
2019-04-16T03:54:12.286Z,62.83
2019-04-16T03:56:44.886Z,63.36
2019-04-16T03:59:16.400Z,63.36
2019-04-16T04:01:46.888Z,63.20
2019-04-16T04:04:17.051Z,63.20
2019-04-16T04:06:53.638Z,63.49
2019-04-16T04:09:24.188Z,63.36
2019-04-16T04:11:54.282Z,63.93
2019-04-16T04:14:24.528Z,64.01
2019-04-16T04:16:54.668Z,64.30
2019-04-16T04:19:32.076Z,63.89
2019-04-16T04:22:02.215Z,64.32
2019-04-16T04:24:32.405Z,64.83
2019-04-16T04:27:02.493Z,64.80
2019-04-16T04:29:34.827Z,64.83
2019-04-16T04:32:07.066Z,65.21
2019-04-16T04:34:38.342Z,64.41
2019-04-16T04:37:08.716Z,64.69
2019-04-16T04:39:43.631Z,64.77
2019-04-16T04:42:11.736Z,64.55
2019-04-16T04:44:41.899Z,64.75
2019-04-16T04:47:12.020Z,65.11
2019-04-16T04:49:42.141Z,64.59
2019-04-16T04:52:14.471Z,64.65
2019-04-16T04:54:44.248Z,65.68
2019-04-16T04:57:14.365Z,66.12
2019-04-16T04:59:44.493Z,66.32
2019-04-16T05:02:15.455Z,64.69
2019-04-16T05:04:57.422Z,64.73
2019-04-16T05:07:29.034Z,65.23
2019-04-16T05:09:59.682Z,65.77
2019-04-16T05:12:30.864Z,65.37
2019-04-16T05:15:03.768Z,65.00
2019-04-16T05:17:35.532Z,64.81
2019-04-16T05:20:05.095Z,65.59
2019-04-16T05:22:35.205Z,65.03
2019-04-16T05:25:06.078Z,65.58
2019-04-16T05:27:39.943Z,66.12
2019-04-16T05:30:08.274Z,65.02
2019-04-16T05:32:38.446Z,65.29
2019-04-16T05:35:10.299Z,64.31
2019-04-16T05:37:40.618Z,64.80
2019-04-16T05:40:10.770Z,63.96
2019-04-16T05:42:43.321Z,65.02
2019-04-16T05:45:13.664Z,64.86
2019-04-16T05:47:48.742Z,65.07
2019-04-16T05:50:15.768Z,64.23
2019-04-16T05:52:45.875Z,64.31
2019-04-16T05:55:49.853Z,64.47
2019-04-16T05:58:19.620Z,63.65
2019-04-16T06:01:17.642Z,63.39
2019-04-16T06:03:52.838Z,63.16
2019-04-16T06:06:20.121Z,64.99
2019-04-16T06:08:50.275Z,63.52
2019-04-16T06:11:28.645Z,63.42
2019-04-16T06:14:06.433Z,63.27
2019-04-16T06:16:59.233Z,63.61
2019-04-16T06:19:51.127Z,62.24
2019-04-16T06:22:46.312Z,62.25
2019-04-16T06:25:34.131Z,61.84
2019-04-16T06:28:33.081Z,62.50
2019-04-16T06:31:20.743Z,62.29
2019-04-16T06:33:59.307Z,62.27
2019-04-16T06:36:52.117Z,62.41
2019-04-16T06:39:34.081Z,62.22
2019-04-16T06:42:29.315Z,61.45
2019-04-16T06:45:04.915Z,61.13
2019-04-16T06:47:52.981Z,61.05
2019-04-16T06:50:40.598Z,60.79
2019-04-16T06:53:30.910Z,60.86
2019-04-16T06:56:25.905Z,60.44
2019-04-16T06:59:01.411Z,60.58
2019-04-16T07:01:50.559Z,60.20
2019-04-16T07:04:39.647Z,59.54
2019-04-16T07:07:17.683Z,59.63
2019-04-16T07:09:57.004Z,59.54
2019-04-16T07:12:30.599Z,59.59
2019-04-16T07:15:00.712Z,58.50
2019-04-16T07:17:33.764Z,58.62
2019-04-16T07:20:04.595Z,58.48
2019-04-16T07:22:34.822Z,56.81
2019-04-16T07:25:05.934Z,57.62
2019-04-16T07:27:52.729Z,57.39
2019-04-16T07:30:59.143Z,57.09
2019-04-16T07:33:39.620Z,55.86
2019-04-16T07:36:27.972Z,54.87
2019-04-16T07:39:28.218Z,54.52
2019-04-16T07:42:10.606Z,54.46
2019-04-16T07:45:05.237Z,54.87
2019-04-16T07:47:57.427Z,55.58
2019-04-16T07:50:53.779Z,55.96
2019-04-16T07:53:47.423Z,53.84
2019-04-16T07:56:20.573Z,53.18
2019-04-16T07:58:50.725Z,54.04
2019-04-16T08:01:20.901Z,52.25
2019-04-16T08:03:51.040Z,52.27
2019-04-16T08:06:22.109Z,52.32
2019-04-16T08:08:53.987Z,53.31
2019-04-16T08:11:24.044Z,52.67
2019-04-16T08:13:54.517Z,51.58
2019-04-16T08:16:24.646Z,51.44
2019-04-16T08:18:54.856Z,51.06
2019-04-16T08:21:25.060Z,51.95
2019-04-16T08:24:17.282Z,51.59
2019-04-16T08:26:47.386Z,50.80
2019-04-16T08:29:17.510Z,49.32
2019-04-16T08:31:49.022Z,50.46
2019-04-16T08:34:19.182Z,48.08
2019-04-16T08:36:49.312Z,48.59
2019-04-16T08:39:19.436Z,48.72
2019-04-16T08:41:52.479Z,48.60
2019-04-16T08:44:21.545Z,47.63
2019-04-16T08:46:51.804Z,46.60
2019-04-16T08:49:22.969Z,46.48
2019-04-16T08:51:53.421Z,48.23
2019-04-16T08:54:23.534Z,47.22
2019-04-16T08:56:53.655Z,45.23
2019-04-16T08:59:23.786Z,44.95
2019-04-16T09:01:54.514Z,46.06
2019-04-16T09:04:25.386Z,43.94
2019-04-16T09:07:09.650Z,43.92
2019-04-16T09:09:38.311Z,43.85
2019-04-16T09:12:09.818Z,43.04
2019-04-16T09:14:44.484Z,43.09
2019-04-16T09:17:26.696Z,42.44
2019-04-16T09:20:04.824Z,42.65
2019-04-16T09:22:47.860Z,43.07
2019-04-16T09:25:23.042Z,42.55
2019-04-16T09:27:57.230Z,41.05
2019-04-16T09:30:49.709Z,40.57
2019-04-16T09:33:25.102Z,42.11
2019-04-16T09:36:04.202Z,41.50
2019-04-16T09:38:53.309Z,40.64
2019-04-16T09:41:28.681Z,41.88
2019-04-16T09:43:59.822Z,38.53
2019-04-16T09:46:49.739Z,39.62
2019-04-16T09:49:04.725Z,38.93
2019-04-16T09:51:35.241Z,38.97
2019-04-16T09:54:05.389Z,37.05
2019-04-16T09:56:35.540Z,38.00
2019-04-16T09:59:18.982Z,38.08
2019-04-16T10:01:52.102Z,37.08
2019-04-16T10:04:22.251Z,38.45
2019-04-16T10:06:52.602Z,37.42
2019-04-16T10:09:23.176Z,37.44
2019-04-16T10:11:53.579Z,37.59
2019-04-16T10:14:23.810Z,36.43
2019-04-16T10:16:54.005Z,37.84
2019-04-16T10:19:24.172Z,36.95
2019-04-16T10:21:54.745Z,38.11
2019-04-16T10:24:43.533Z,38.26
2019-04-16T10:27:19.988Z,37.15
2019-04-16T10:29:50.111Z,36.60
2019-04-16T10:32:20.273Z,37.32
2019-04-16T10:34:50.470Z,36.59
2019-04-16T10:37:20.673Z,35.97
2019-04-16T10:40:13.043Z,37.23
2019-04-16T10:43:05.111Z,37.88
2019-04-16T10:45:54.253Z,37.38
2019-04-16T10:48:46.471Z,37.40
2019-04-16T10:51:31.256Z,37.50
2019-04-16T10:54:10.067Z,37.17
2019-04-16T10:56:59.242Z,37.07
2019-04-16T10:59:57.283Z,37.53
2019-04-16T11:02:48.160Z,35.74
2019-04-16T11:05:22.448Z,34.44
2019-04-16T11:07:52.746Z,34.31
2019-04-16T11:10:22.932Z,33.68
2019-04-16T11:12:53.351Z,33.60
2019-04-16T11:15:25.322Z,33.70
2019-04-16T11:17:55.467Z,35.71
2019-04-16T11:20:25.729Z,35.52
2019-04-16T11:22:55.930Z,34.63
2019-04-16T11:25:28.043Z,34.88
2019-04-16T11:27:59.846Z,34.27
2019-04-16T11:30:51.728Z,35.26
2019-04-16T11:33:21.868Z,35.76
2019-04-16T11:35:53.152Z,35.30
2019-04-16T11:38:24.020Z,35.50
2019-04-16T11:40:54.195Z,35.95
2019-04-16T11:43:24.327Z,36.28
2019-04-16T11:45:54.628Z,35.09
2019-04-16T11:48:24.731Z,33.18
2019-04-16T11:50:55.039Z,33.74
2019-04-16T11:53:25.247Z,36.27
2019-04-16T11:55:55.615Z,34.02
2019-04-16T11:58:51.501Z,33.68
2019-04-16T12:01:55.870Z,33.00
2019-04-16T12:04:42.548Z,33.43
2019-04-16T12:07:24.958Z,33.25
2019-04-16T12:10:12.329Z,33.13
2019-04-16T12:13:03.447Z,33.01
2019-04-16T12:15:42.093Z,34.46
2019-04-16T12:18:26.100Z,31.46
2019-04-16T12:21:05.068Z,32.21
2019-04-16T12:23:55.464Z,32.29
2019-04-16T12:26:50.681Z,32.30
2019-04-16T12:29:39.878Z,33.57
2019-04-16T12:32:26.849Z,32.63
2019-04-16T12:35:15.233Z,33.48
2019-04-16T12:38:03.375Z,33.13
2019-04-16T12:40:42.274Z,33.05
2019-04-16T12:43:27.659Z,32.32
2019-04-16T12:46:28.802Z,31.27
2019-04-16T12:49:36.454Z,32.32
2019-04-16T12:52:37.679Z,32.48
2019-04-16T12:55:39.106Z,31.29
2019-04-16T12:58:19.975Z,30.36
2019-04-16T13:01:10.240Z,30.19
2019-04-16T13:03:57.953Z,32.29
2019-04-16T13:06:39.338Z,31.28
2019-04-16T13:09:37.452Z,32.05
2019-04-16T13:12:12.758Z,30.33
2019-04-16T13:15:06.650Z,31.21
2019-04-16T13:17:54.878Z,30.30
2019-04-16T13:20:44.192Z,32.27
2019-04-16T13:23:24.666Z,30.51
2019-04-16T13:26:13.231Z,31.17
2019-04-16T13:28:45.923Z,31.41
2019-04-16T13:31:22.203Z,31.51
2019-04-16T13:33:53.581Z,30.56
2019-04-16T13:36:26.958Z,31.98
2019-04-16T13:39:01.285Z,30.72
2019-04-16T13:41:33.160Z,30.80
2019-04-16T13:44:09.041Z,31.65
2019-04-16T13:46:39.051Z,30.95
2019-04-16T13:49:31.698Z,30.33
2019-04-16T13:52:01.413Z,30.09
2019-04-16T13:54:47.825Z,30.82
2019-04-16T13:57:19.933Z,31.03
2019-04-16T14:00:27.684Z,30.82
2019-04-16T14:03:04.917Z,31.87
2019-04-16T14:05:38.435Z,31.76
2019-04-16T14:08:07.035Z,30.09
2019-04-16T14:10:37.396Z,29.80
2019-04-16T14:13:12.090Z,28.94
2019-04-16T14:15:40.650Z,29.91
2019-04-16T14:18:11.928Z,30.66
2019-04-16T14:20:42.239Z,30.58
2019-04-16T14:23:13.405Z,30.25
2019-04-16T14:25:43.829Z,30.08
2019-04-16T14:28:13.999Z,29.96
2019-04-16T14:30:48.072Z,30.24
2019-04-16T14:33:30.683Z,31.03
2019-04-16T14:36:00.844Z,30.51
2019-04-16T14:38:38.975Z,29.22
2019-04-16T14:41:11.886Z,30.19
2019-04-16T14:43:46.579Z,30.69
2019-04-16T14:46:16.678Z,30.18
2019-04-16T14:48:46.881Z,30.92
2019-04-16T14:51:17.099Z,30.02
2019-04-16T14:54:07.466Z,31.04
2019-04-16T14:56:42.792Z,29.52
2019-04-16T14:59:34.113Z,30.74
2019-04-16T15:02:07.222Z,30.00
2019-04-16T15:04:57.763Z,30.78
2019-04-16T15:07:52.393Z,29.62
2019-04-16T15:10:40.614Z,29.49
2019-04-16T15:13:35.131Z,30.02
2019-04-16T15:16:30.657Z,31.31
2019-04-16T15:19:18.193Z,30.62
2019-04-16T15:22:06.568Z,30.38
2019-04-16T15:24:58.116Z,29.79
2019-04-16T15:27:36.427Z,30.44
2019-04-16T15:30:28.315Z,29.94
2019-04-16T15:33:10.779Z,30.37
2019-04-16T15:35:46.720Z,29.69
2019-04-16T15:38:35.427Z,28.45
2019-04-16T15:41:32.071Z,27.18
2019-04-16T15:44:23.684Z,26.49
2019-04-16T15:47:14.277Z,26.80
2019-04-16T15:50:17.021Z,27.60
2019-04-16T15:53:02.695Z,25.44
2019-04-16T15:55:41.883Z,25.55
2019-04-16T15:58:21.443Z,25.72
2019-04-16T16:01:00.503Z,25.72
2019-04-16T16:03:45.776Z,25.98
2019-04-16T16:06:21.075Z,24.48
2019-04-16T16:09:04.269Z,25.44
2019-04-16T16:11:44.521Z,26.29
2019-04-16T16:14:14.826Z,26.45
2019-04-16T16:16:47.831Z,25.50
2019-04-16T16:19:17.024Z,25.72
2019-04-16T16:21:47.524Z,25.93
2019-04-16T16:24:17.942Z,25.62
2019-04-16T16:26:48.122Z,24.98
2019-04-16T16:29:19.431Z,24.22
2019-04-16T16:31:49.638Z,24.04
2019-04-16T16:34:19.902Z,24.42
2019-04-16T16:36:50.020Z,24.80
2019-04-16T16:39:20.161Z,23.60
2019-04-16T16:41:50.692Z,23.54
2019-04-16T16:44:20.887Z,23.43
2019-04-16T16:47:08.519Z,22.91
2019-04-16T16:49:39.000Z,23.73
2019-04-16T16:52:34.416Z,23.63
2019-04-16T16:55:06.594Z,24.20
2019-04-16T16:57:42.094Z,24.87
2019-04-16T17:00:34.436Z,23.64
2019-04-16T17:03:20.870Z,24.68
2019-04-16T17:05:51.692Z,24.95
2019-04-16T17:08:22.022Z,24.39
2019-04-16T17:10:52.225Z,24.47
2019-04-16T17:13:22.482Z,24.84
2019-04-16T17:15:52.678Z,24.49
2019-04-16T17:18:22.910Z,25.56
2019-04-16T17:20:53.112Z,25.74
2019-04-16T17:23:25.590Z,26.45
2019-04-16T17:25:57.864Z,27.25
2019-04-16T17:28:29.654Z,27.77
2019-04-16T17:30:59.822Z,28.45
2019-04-16T17:33:30.090Z,28.85
2019-04-16T17:36:00.646Z,28.90
2019-04-16T17:38:33.864Z,30.15
2019-04-16T17:41:05.570Z,29.83
2019-04-16T17:44:02.089Z,29.75
2019-04-16T17:46:43.950Z,30.52
2019-04-16T17:49:25.613Z,30.92
2019-04-16T17:52:05.320Z,30.84
2019-04-16T17:54:38.578Z,30.64
2019-04-16T17:57:29.857Z,32.04
2019-04-16T18:00:16.313Z,31.28
2019-04-16T18:03:17.593Z,31.80
2019-04-16T18:06:06.761Z,31.69
2019-04-16T18:08:55.880Z,32.25
2019-04-16T18:11:56.923Z,32.02
2019-04-16T18:14:43.964Z,32.19
2019-04-16T18:17:46.360Z,32.54
2019-04-16T18:20:28.548Z,32.76
2019-04-16T18:23:18.356Z,32.29
2019-04-16T18:26:10.235Z,32.62
2019-04-16T18:29:02.097Z,32.89
2019-04-16T18:31:58.839Z,32.88
2019-04-16T18:34:53.960Z,33.28
2019-04-16T18:37:38.061Z,33.99
2019-04-16T18:40:45.812Z,34.19
2019-04-16T18:43:35.820Z,33.14
2019-04-16T18:46:45.529Z,34.11
2019-04-16T18:49:18.965Z,34.37
2019-04-16T18:51:50.104Z,33.96
2019-04-16T18:54:20.672Z,33.69
2019-04-16T18:56:53.317Z,34.10
2019-04-16T18:59:25.263Z,35.08
2019-04-16T19:02:01.501Z,34.30
2019-04-16T19:04:31.757Z,34.96
2019-04-16T19:07:02.067Z,35.17
2019-04-16T19:09:32.411Z,34.41
2019-04-16T19:12:02.600Z,35.05
2019-04-16T19:14:36.353Z,35.26
2019-04-16T19:17:04.809Z,35.02
2019-04-16T19:19:34.975Z,35.02
2019-04-16T19:22:05.271Z,35.69
2019-04-16T19:24:35.500Z,36.12
2019-04-16T19:27:12.485Z,36.69
2019-04-16T19:29:45.508Z,37.01
2019-04-16T19:32:18.023Z,37.65
2019-04-16T19:34:49.910Z,37.62
2019-04-16T19:37:20.077Z,37.56
2019-04-16T19:39:50.270Z,37.75
2019-04-16T19:42:21.551Z,37.79
2019-04-16T19:44:51.746Z,38.51
2019-04-16T19:47:23.370Z,38.23
2019-04-16T19:49:53.825Z,38.63
2019-04-16T19:52:24.084Z,38.97
2019-04-16T19:54:54.304Z,38.95
2019-04-16T19:57:24.496Z,39.33
2019-04-16T19:59:55.074Z,39.18
2019-04-16T20:02:25.332Z,39.37
2019-04-16T20:04:55.627Z,39.02
2019-04-16T20:07:25.743Z,39.38
2019-04-16T20:09:57.087Z,39.52
2019-04-16T20:12:28.013Z,40.17
2019-04-16T20:14:59.039Z,39.67
2019-04-16T20:17:29.266Z,39.92
2019-04-16T20:19:59.841Z,40.14
2019-04-16T20:22:31.179Z,40.65
2019-04-16T20:25:01.330Z,41.64
2019-04-16T20:27:31.557Z,41.40
2019-04-16T20:30:01.797Z,41.37
2019-04-16T20:32:34.354Z,40.94
2019-04-16T20:35:05.901Z,41.03
2019-04-16T20:37:39.085Z,41.07
2019-04-16T20:40:09.322Z,40.93
2019-04-16T20:42:40.723Z,41.00
2019-04-16T20:45:11.135Z,41.76
2019-04-16T20:47:41.316Z,41.72
2019-04-16T20:50:13.882Z,41.96
2019-04-16T20:52:44.095Z,41.65
2019-04-16T20:55:16.079Z,41.51
2019-04-16T20:57:46.253Z,41.53
2019-04-16T21:00:21.899Z,41.67
2019-04-16T21:02:53.187Z,41.53
2019-04-16T21:05:23.311Z,41.47
2019-04-16T21:07:54.221Z,41.71
2019-04-16T21:10:24.416Z,41.88
2019-04-16T21:12:55.113Z,41.74
2019-04-16T21:15:27.499Z,40.83
2019-04-16T21:17:57.879Z,40.34
2019-04-16T21:20:27.998Z,40.91
2019-04-16T21:23:01.595Z,41.36
2019-04-16T21:25:29.965Z,41.00
2019-04-16T21:28:19.143Z,40.86
2019-04-16T21:30:52.234Z,40.69
2019-04-16T21:33:36.638Z,41.35
2019-04-16T21:36:07.895Z,41.26
2019-04-16T21:38:46.108Z,41.82
2019-04-16T21:41:16.231Z,41.72
2019-04-16T21:43:46.409Z,41.87
2019-04-16T21:46:20.195Z,41.90
2019-04-16T21:48:48.376Z,41.28
2019-04-16T21:51:23.965Z,41.28
2019-04-16T21:53:51.687Z,42.41
2019-04-16T21:56:21.851Z,41.50
2019-04-16T21:58:55.010Z,42.32
2019-04-16T22:01:38.166Z,41.17
2019-04-16T22:04:14.767Z,41.72
2019-04-16T22:06:45.032Z,42.58
2019-04-16T22:09:15.450Z,42.67
2019-04-16T22:11:46.053Z,42.62
2019-04-16T22:14:16.219Z,42.06
2019-04-16T22:16:46.323Z,42.99
2019-04-16T22:19:16.472Z,42.05
2019-04-16T22:21:46.623Z,41.82
2019-04-16T22:24:19.715Z,42.62
2019-04-16T22:26:49.603Z,42.52
2019-04-16T22:29:19.854Z,43.17
2019-04-16T22:31:52.783Z,43.00
2019-04-16T22:34:22.554Z,42.48
2019-04-16T22:36:52.746Z,43.48
2019-04-16T22:39:41.679Z,43.19
2019-04-16T22:42:29.697Z,42.82
2019-04-16T22:45:17.488Z,42.93
2019-04-16T22:47:48.088Z,43.17
2019-04-16T22:50:18.588Z,42.54
2019-04-16T22:52:48.708Z,42.67
2019-04-16T22:55:24.568Z,42.95
2019-04-16T22:57:50.712Z,42.06
2019-04-16T23:00:33.328Z,43.03
2019-04-16T23:03:03.520Z,43.07
2019-04-16T23:05:33.677Z,42.78
2019-04-16T23:10:45.597Z,43.30
2019-04-16T23:13:15.746Z,43.20
2019-04-16T23:15:45.943Z,43.26
2019-04-16T23:18:18.223Z,42.98
2019-04-16T23:20:49.066Z,42.51
2019-04-16T23:23:19.435Z,43.26
2019-04-16T23:25:50.516Z,43.36
2019-04-16T23:28:20.679Z,43.28
2019-04-16T23:30:51.767Z,42.66
2019-04-16T23:33:22.028Z,43.89
2019-04-16T23:35:52.260Z,42.82
2019-04-16T23:38:22.379Z,43.33
2019-04-16T23:40:53.994Z,43.99
2019-04-16T23:43:34.482Z,43.74
2019-04-16T23:46:22.922Z,43.70
2019-04-16T23:49:16.482Z,43.17
2019-04-16T23:52:01.591Z,44.12
2019-04-16T23:54:32.932Z,43.62
2019-04-16T23:57:11.606Z,44.27
